トビリシ の空港の天気 - METARとTAF

トビリシ国際空港 ( UGTB / TBS ) - ジョージア トビリシ
飛行場実況気象(Metar)
観測時間07/29 06:30 GET (07/29 02:30 UTC)
風向・風速南 2m/s
視程10km以上
天気現象
全天の8割程度の雲 雲底高度 400m
全天を覆う雲 雲底高度 730m
気温19℃
湿度94%
気圧1017hPa
METARUGTB 290230Z 17004KT 130V210 9999 BKN013CB OVC024 19/18 Q1017 R31L/290054 NOSIG
過去の天気等 Google飛行場航空写真 Wunderground天気予報

過去48時間のMETAR

飛行場予報(TAF)
発表時間: 7/29 03:00 GET (7/28 23:00 UTC)
予報対象時間: 29日4時 GET ~ 30日4時 GET
風向・風速北東 4m/s
視程8000m
全天の8割程度の積乱雲 雲底高度 1070m
29日4時 GET ~ 29日10時 GET に一時的に
視程4000m
天気現象雷雨
全天の4割程度の雲 雲底高度 240m
全天の8割程度の積乱雲 雲底高度 610m
29日10時 GET ~ 29日13時 GET に徐々に
風向・風速南南東 7m/s
全天の4割程度の積乱雲 雲底高度 1520m
全天の8割程度の雲 雲底高度 1980m
29日20時 GET ~ 29日22時 GET に徐々に
風向・風速不定 1m/s
視程10km以上
なし
TAF UGTB 282300Z 2900/2924 05007KT 8000 BKN035CB TX25/2911Z TN17/2902Z
TEMPO 2900/2906 4000 TSRA SCT008 BKN020CB
BECMG 2906/2909 15013KT SCT050CB BKN065
BECMG 2916/2918 VRB02KT CAVOK